sensor_id;sensor_type;location;lat;lon;timestamp;pressure;altitude;pressure_sealevel;temperature;humidity
29903;BME280;30288;50.514;9.678;2023-11-19T00:01:44;98456.41;;;6.66;100.00
29903;BME280;30288;50.514;9.678;2023-11-19T00:03:50;98453.94;;;6.65;100.00
29903;BME280;30288;50.514;9.678;2023-11-19T00:05:56;98441.44;;;6.63;100.00
29903;BME280;30288;50.514;9.678;2023-11-19T00:08:04;98448.03;;;6.67;100.00
29903;BME280;30288;50.514;9.678;2023-11-19T00:10:13;98453.06;;;6.67;100.00
29903;BME280;30288;50.514;9.678;2023-11-19T00:12:24;98443.09;;;6.64;100.00
29903;BME280;30288;50.514;9.678;2023-11-19T00:14:29;98460.63;;;6.64;100.00
29903;BME280;30288;50.514;9.678;2023-11-19T00:16:37;98454.78;;;6.64;100.00
29903;BME280;30288;50.514;9.678;2023-11-19T00:18:42;98463.94;;;6.65;100.00
29903;BME280;30288;50.514;9.678;2023-11-19T00:20:47;98471.41;;;6.66;100.00
29903;BME280;30288;50.514;9.678;2023-11-19T00:22:52;98458.06;;;6.67;100.00
29903;BME280;30288;50.514;9.678;2023-11-19T00:24:57;98446.34;;;6.69;100.00
29903;BME280;30288;50.514;9.678;2023-11-19T00:27:03;98440.53;;;6.69;100.00
29903;BME280;30288;50.514;9.678;2023-11-19T00:29:12;98431.34;;;6.69;100.00
29903;BME280;30288;50.514;9.678;2023-11-19T00:31:18;98436.34;;;6.69;100.00
29903;BME280;30288;50.514;9.678;2023-11-19T00:33:24;98428.00;;;6.69;100.00
29903;BME280;30288;50.514;9.678;2023-11-19T00:35:29;98420.50;;;6.69;100.00
29903;BME280;30288;50.514;9.678;2023-11-19T00:37:35;98428.84;;;6.68;100.00
29903;BME280;30288;50.514;9.678;2023-11-19T00:39:38;98426.28;;;6.72;100.00
29903;BME280;30288;50.514;9.678;2023-11-19T00:41:44;98417.91;;;6.73;100.00
29903;BME280;30288;50.514;9.678;2023-11-19T00:43:50;98417.09;;;6.71;100.00
29903;BME280;30288;50.514;9.678;2023-11-19T00:45:58;98397.09;;;6.71;100.00
29903;BME280;30288;50.514;9.678;2023-11-19T00:48:00;98388.81;;;6.69;100.00
29903;BME280;30288;50.514;9.678;2023-11-19T00:50:07;98389.66;;;6.68;100.00
29903;BME280;30288;50.514;9.678;2023-11-19T00:52:15;98389.56;;;6.74;100.00
29903;BME280;30288;50.514;9.678;2023-11-19T00:54:21;98399.50;;;6.77;100.00
29903;BME280;30288;50.514;9.678;2023-11-19T00:56:28;98401.19;;;6.75;100.00
29903;BME280;30288;50.514;9.678;2023-11-19T00:58:34;98392.84;;;6.76;100.00
29903;BME280;30288;50.514;9.678;2023-11-19T01:00:39;98401.97;;;6.79;100.00
29903;BME280;30288;50.514;9.678;2023-11-19T01:02:48;98401.91;;;6.82;100.00
29903;BME280;30288;50.514;9.678;2023-11-19T01:04:54;98399.41;;;6.80;100.00
29903;BME280;30288;50.514;9.678;2023-11-19T01:07:01;98386.97;;;6.79;100.00
29903;BME280;30288;50.514;9.678;2023-11-19T01:09:07;98390.22;;;6.84;100.00
29903;BME280;30288;50.514;9.678;2023-11-19T01:11:20;98387.72;;;6.82;100.00
29903;BME280;30288;50.514;9.678;2023-11-19T01:13:24;98392.72;;;6.82;100.00
29903;BME280;30288;50.514;9.678;2023-11-19T01:15:29;98384.38;;;6.83;100.00
29903;BME280;30288;50.514;9.678;2023-11-19T01:17:36;98373.47;;;6.86;100.00
29903;BME280;30288;50.514;9.678;2023-11-19T01:19:55;98371.78;;;6.88;100.00
29903;BME280;30288;50.514;9.678;2023-11-19T01:22:00;98367.59;;;6.88;100.00
29903;BME280;30288;50.514;9.678;2023-11-19T01:24:07;98370.88;;;6.90;100.00
29903;BME280;30288;50.514;9.678;2023-11-19T01:26:15;98364.16;;;6.92;100.00
29903;BME280;30288;50.514;9.678;2023-11-19T01:28:21;98371.50;;;7.01;100.00
29903;BME280;30288;50.514;9.678;2023-11-19T01:30:27;98365.56;;;7.06;100.00
29903;BME280;30288;50.514;9.678;2023-11-19T01:32:32;98359.72;;;7.07;100.00
29903;BME280;30288;50.514;9.678;2023-11-19T01:34:35;98352.97;;;7.10;100.00
29903;BME280;30288;50.514;9.678;2023-11-19T01:36:43;98352.94;;;7.12;100.00
29903;BME280;30288;50.514;9.678;2023-11-19T01:38:51;98353.81;;;7.09;100.00
29903;BME280;30288;50.514;9.678;2023-11-19T01:40:56;98349.59;;;7.11;100.00
29903;BME280;30288;50.514;9.678;2023-11-19T01:43:01;98357.16;;;7.10;100.00
29903;BME280;30288;50.514;9.678;2023-11-19T01:45:07;98356.28;;;7.11;100.00
29903;BME280;30288;50.514;9.678;2023-11-19T01:47:12;98350.44;;;7.12;100.00
29903;BME280;30288;50.514;9.678;2023-11-19T01:49:18;98337.09;;;7.10;100.00
29903;BME280;30288;50.514;9.678;2023-11-19T01:51:24;98338.75;;;7.11;100.00
29903;BME280;30288;50.514;9.678;2023-11-19T01:53:34;98332.84;;;7.15;100.00
29903;BME280;30288;50.514;9.678;2023-11-19T01:55:40;98340.34;;;7.15;100.00
29903;BME280;30288;50.514;9.678;2023-11-19T01:57:46;98328.47;;;7.23;100.00
29903;BME280;30288;50.514;9.678;2023-11-19T01:59:52;98323.47;;;7.23;100.00
29903;BME280;30288;50.514;9.678;2023-11-19T02:01:58;98315.97;;;7.23;100.00
29903;BME280;30288;50.514;9.678;2023-11-19T02:04:06;98315.94;;;7.24;100.00
29903;BME280;30288;50.514;9.678;2023-11-19T02:06:10;98326.03;;;7.21;100.00
29903;BME280;30288;50.514;9.678;2023-11-19T02:08:15;98325.94;;;7.24;100.00
29903;BME280;30288;50.514;9.678;2023-11-19T02:10:24;98316.75;;;7.25;100.00
29903;BME280;30288;50.514;9.678;2023-11-19T02:12:29;98305.09;;;7.24;100.00
29903;BME280;30288;50.514;9.678;2023-11-19T02:14:36;98295.91;;;7.24;100.00
29903;BME280;30288;50.514;9.678;2023-11-19T02:16:39;98291.63;;;7.28;100.00
29903;BME280;30288;50.514;9.678;2023-11-19T02:18:44;98282.41;;;7.31;100.00
29903;BME280;30288;50.514;9.678;2023-11-19T02:20:49;98283.19;;;7.32;100.00
29903;BME280;30288;50.514;9.678;2023-11-19T02:22:55;98287.34;;;7.34;100.00
29903;BME280;30288;50.514;9.678;2023-11-19T02:25:06;98275.56;;;7.38;100.00
29903;BME280;30288;50.514;9.678;2023-11-19T02:27:22;98266.34;;;7.40;100.00
29903;BME280;30288;50.514;9.678;2023-11-19T02:29:34;98269.63;;;7.42;100.00
29903;BME280;30288;50.514;9.678;2023-11-19T02:31:40;98258.81;;;7.40;100.00
29903;BME280;30288;50.514;9.678;2023-11-19T02:33:42;98252.06;;;7.43;100.00
29903;BME280;30288;50.514;9.678;2023-11-19T02:35:48;98234.41;;;7.48;100.00
29903;BME280;30288;50.514;9.678;2023-11-19T02:37:51;98246.09;;;7.47;100.00
29903;BME280;30288;50.514;9.678;2023-11-19T02:39:56;98235.25;;;7.47;100.00
29903;BME280;30288;50.514;9.678;2023-11-19T02:42:06;98241.84;;;7.51;100.00
29903;BME280;30288;50.514;9.678;2023-11-19T02:44:09;98237.72;;;7.50;100.00
29903;BME280;30288;50.514;9.678;2023-11-19T02:46:19;98240.97;;;7.54;100.00
29903;BME280;30288;50.514;9.678;2023-11-19T02:48:24;98237.53;;;7.56;100.00
29903;BME280;30288;50.514;9.678;2023-11-19T02:50:29;98247.56;;;7.56;100.00
29903;BME280;30288;50.514;9.678;2023-11-19T02:52:34;98241.69;;;7.57;100.00
29903;BME280;30288;50.514;9.678;2023-11-19T02:54:40;98232.41;;;7.62;100.00
29903;BME280;30288;50.514;9.678;2023-11-19T02:56:46;98231.47;;;7.66;100.00
29903;BME280;30288;50.514;9.678;2023-11-19T02:58:58;98231.44;;;7.68;100.00
29903;BME280;30288;50.514;9.678;2023-11-19T03:01:06;98225.44;;;7.73;100.00
29903;BME280;30288;50.514;9.678;2023-11-19T03:03:18;98233.72;;;7.75;100.00
29903;BME280;30288;50.514;9.678;2023-11-19T03:05:27;98232.13;;;7.74;100.00
29903;BME280;30288;50.514;9.678;2023-11-19T03:07:32;98237.13;;;7.74;100.00
29903;BME280;30288;50.514;9.678;2023-11-19T03:09:38;98235.38;;;7.76;100.00
29903;BME280;30288;50.514;9.678;2023-11-19T03:11:44;98237.88;;;7.78;100.00
29903;BME280;30288;50.514;9.678;2023-11-19T03:13:49;98234.41;;;7.82;100.00
29903;BME280;30288;50.514;9.678;2023-11-19T03:15:54;98236.06;;;7.83;100.00
29903;BME280;30288;50.514;9.678;2023-11-19T03:18:00;98222.63;;;7.85;100.00
29903;BME280;30288;50.514;9.678;2023-11-19T03:20:09;98214.22;;;7.88;100.00
29903;BME280;30288;50.514;9.678;2023-11-19T03:22:17;98207.53;;;7.88;100.00
29903;BME280;30288;50.514;9.678;2023-11-19T03:24:20;98218.31;;;7.90;100.00
29903;BME280;30288;50.514;9.678;2023-11-19T03:26:27;98206.56;;;7.93;100.00
29903;BME280;30288;50.514;9.678;2023-11-19T03:28:33;98207.34;;;7.95;100.00
29903;BME280;30288;50.514;9.678;2023-11-19T03:30:38;98201.47;;;7.96;100.00
29903;BME280;30288;50.514;9.678;2023-11-19T03:32:44;98200.66;;;7.95;100.00
29903;BME280;30288;50.514;9.678;2023-11-19T03:34:50;98206.34;;;8.02;100.00
29903;BME280;30288;50.514;9.678;2023-11-19T03:36:58;98207.03;;;8.07;100.00
29903;BME280;30288;50.514;9.678;2023-11-19T03:39:03;98196.16;;;8.08;100.00
29903;BME280;30288;50.514;9.678;2023-11-19T03:41:12;98197.78;;;8.09;100.00
29903;BME280;30288;50.514;9.678;2023-11-19T03:43:19;98186.88;;;8.10;100.00
29903;BME280;30288;50.514;9.678;2023-11-19T03:45:24;98173.50;;;8.11;100.00
29903;BME280;30288;50.514;9.678;2023-11-19T03:47:30;98179.38;;;8.10;100.00
29903;BME280;30288;50.514;9.678;2023-11-19T03:49:32;98180.91;;;8.14;100.00
29903;BME280;30288;50.514;9.678;2023-11-19T03:51:37;98189.25;;;8.16;100.00
29903;BME280;30288;50.514;9.678;2023-11-19T03:53:46;98197.47;;;8.21;100.00
29903;BME280;30288;50.514;9.678;2023-11-19T03:55:51;98212.31;;;8.27;100.00
29903;BME280;30288;50.514;9.678;2023-11-19T03:57:56;98222.34;;;8.30;100.00
29903;BME280;30288;50.514;9.678;2023-11-19T04:00:02;98223.16;;;8.29;100.00
29903;BME280;30288;50.514;9.678;2023-11-19T04:02:14;98220.66;;;8.29;100.00
29903;BME280;30288;50.514;9.678;2023-11-19T04:04:21;98220.66;;;8.29;100.00
29903;BME280;30288;50.514;9.678;2023-11-19T04:06:26;98211.44;;;8.31;100.00
29903;BME280;30288;50.514;9.678;2023-11-19T04:08:32;98208.94;;;8.31;100.00
29903;BME280;30288;50.514;9.678;2023-11-19T04:10:40;98190.47;;;8.32;100.00
29903;BME280;30288;50.514;9.678;2023-11-19T04:12:45;98203.13;;;8.27;100.00
29903;BME280;30288;50.514;9.678;2023-11-19T04:14:51;98198.94;;;8.28;100.00
29903;BME280;30288;50.514;9.678;2023-11-19T04:16:56;98197.25;;;8.30;100.00
29903;BME280;30288;50.514;9.678;2023-11-19T04:19:01;98204.78;;;8.30;100.00
29903;BME280;30288;50.514;9.678;2023-11-19T04:21:07;98221.47;;;8.31;100.00
29903;BME280;30288;50.514;9.678;2023-11-19T04:23:10;98208.81;;;8.36;100.00
29903;BME280;30288;50.514;9.678;2023-11-19T04:25:15;98203.00;;;8.33;100.00
29903;BME280;30288;50.514;9.678;2023-11-19T04:27:22;98209.56;;;8.38;100.00
29903;BME280;30288;50.514;9.678;2023-11-19T04:29:27;98204.59;;;8.36;100.00
29903;BME280;30288;50.514;9.678;2023-11-19T04:31:33;98208.75;;;8.37;100.00
29903;BME280;30288;50.514;9.678;2023-11-19T04:33:39;98197.81;;;8.40;100.00
29903;BME280;30288;50.514;9.678;2023-11-19T04:35:45;98197.66;;;8.46;100.00
29903;BME280;30288;50.514;9.678;2023-11-19T04:37:47;98201.84;;;8.45;100.00
29903;BME280;30288;50.514;9.678;2023-11-19T04:39:53;98194.06;;;8.54;100.00
29903;BME280;30288;50.514;9.678;2023-11-19T04:41:58;98178.88;;;8.59;100.00
29903;BME280;30288;50.514;9.678;2023-11-19T04:44:06;98180.53;;;8.58;100.00
29903;BME280;30288;50.514;9.678;2023-11-19T04:46:12;98181.31;;;8.60;100.00
29903;BME280;30288;50.514;9.678;2023-11-19T04:48:18;98189.63;;;8.62;100.00
29903;BME280;30288;50.514;9.678;2023-11-19T04:50:23;98184.50;;;8.65;100.00
29903;BME280;30288;50.514;9.678;2023-11-19T04:52:29;98186.00;;;8.72;100.00
29903;BME280;30288;50.514;9.678;2023-11-19T04:54:35;98173.41;;;8.74;100.00
29903;BME280;30288;50.514;9.678;2023-11-19T04:56:41;98167.63;;;8.70;100.00
29903;BME280;30288;50.514;9.678;2023-11-19T04:58:49;98162.81;;;8.64;100.00
29903;BME280;30288;50.514;9.678;2023-11-19T05:00:57;98157.97;;;8.58;100.00
29903;BME280;30288;50.514;9.678;2023-11-19T05:03:02;98155.59;;;8.54;100.00
29903;BME280;30288;50.514;9.678;2023-11-19T05:05:09;98154.16;;;8.45;100.00
29903;BME280;30288;50.514;9.678;2023-11-19T05:07:15;98169.97;;;8.47;100.00
29903;BME280;30288;50.514;9.678;2023-11-19T05:09:20;98178.19;;;8.52;100.00
29903;BME280;30288;50.514;9.678;2023-11-19T05:11:25;98171.47;;;8.54;100.00
29903;BME280;30288;50.514;9.678;2023-11-19T05:13:31;98179.84;;;8.53;100.00
29903;BME280;30288;50.514;9.678;2023-11-19T05:15:36;98173.13;;;8.55;100.00
29903;BME280;30288;50.514;9.678;2023-11-19T05:17:41;98171.47;;;8.54;100.00
29903;BME280;30288;50.514;9.678;2023-11-19T05:19:47;98186.16;;;8.66;100.00
29903;BME280;30288;50.514;9.678;2023-11-19T05:21:52;98180.16;;;8.72;100.00
29903;BME280;30288;50.514;9.678;2023-11-19T05:23:57;98180.97;;;8.72;100.00
29903;BME280;30288;50.514;9.678;2023-11-19T05:26:03;98187.44;;;8.79;100.00
29903;BME280;30288;50.514;9.678;2023-11-19T05:28:10;98185.72;;;8.82;100.00
29903;BME280;30288;50.514;9.678;2023-11-19T05:30:17;98185.63;;;8.85;100.00
29903;BME280;30288;50.514;9.678;2023-11-19T05:32:22;98187.25;;;8.86;100.00
29903;BME280;30288;50.514;9.678;2023-11-19T05:34:27;98192.94;;;8.92;100.00
29903;BME280;30288;50.514;9.678;2023-11-19T05:36:34;98202.06;;;8.95;100.00
29903;BME280;30288;50.514;9.678;2023-11-19T05:38:39;98200.22;;;9.00;100.00
29903;BME280;30288;50.514;9.678;2023-11-19T05:40:42;98193.38;;;9.05;100.00
29903;BME280;30288;50.514;9.678;2023-11-19T05:42:50;98190.88;;;9.05;100.00
29903;BME280;30288;50.514;9.678;2023-11-19T05:44:55;98184.00;;;9.10;100.00
29903;BME280;30288;50.514;9.678;2023-11-19T05:47:00;98176.38;;;9.13;100.00
29903;BME280;30288;50.514;9.678;2023-11-19T05:49:06;98181.31;;;9.16;100.00
29903;BME280;30288;50.514;9.678;2023-11-19T05:51:14;98185.41;;;9.18;100.00
29903;BME280;30288;50.514;9.678;2023-11-19T05:53:20;98177.84;;;9.20;100.00
29903;BME280;30288;50.514;9.678;2023-11-19T05:55:23;98175.38;;;9.18;100.00
29903;BME280;30288;50.514;9.678;2023-11-19T05:57:30;98170.25;;;9.21;100.00
29903;BME280;30288;50.514;9.678;2023-11-19T05:59:48;98166.81;;;9.24;100.00
29903;BME280;30288;50.514;9.678;2023-11-19T06:01:54;98149.34;;;9.21;100.00
29903;BME280;30288;50.514;9.678;2023-11-19T06:03:59;98161.84;;;9.22;100.00
29903;BME280;30288;50.514;9.678;2023-11-19T06:06:03;98157.44;;;9.29;100.00
29903;BME280;30288;50.514;9.678;2023-11-19T06:08:11;98152.31;;;9.32;100.00
29903;BME280;30288;50.514;9.678;2023-11-19T06:10:17;98159.19;;;9.27;100.00
29903;BME280;30288;50.514;9.678;2023-11-19T06:12:23;98164.19;;;9.27;100.00
29903;BME280;30288;50.514;9.678;2023-11-19T06:14:30;98170.13;;;9.26;100.00
29903;BME280;30288;50.514;9.678;2023-11-19T06:16:36;98168.41;;;9.27;100.00
29903;BME280;30288;50.514;9.678;2023-11-19T06:18:42;98172.63;;;9.26;100.00
29903;BME280;30288;50.514;9.678;2023-11-19T06:20:48;98166.63;;;9.30;100.00
29903;BME280;30288;50.514;9.678;2023-11-19T06:22:54;98173.19;;;9.34;100.00
29903;BME280;30288;50.514;9.678;2023-11-19T06:25:04;98167.16;;;9.40;100.00
29903;BME280;30288;50.514;9.678;2023-11-19T06:27:10;98168.75;;;9.42;100.00
29903;BME280;30288;50.514;9.678;2023-11-19T06:29:15;98177.88;;;9.45;100.00
29903;BME280;30288;50.514;9.678;2023-11-19T06:31:22;98168.56;;;9.48;100.00
29903;BME280;30288;50.514;9.678;2023-11-19T06:33:27;98173.47;;;9.51;100.00
29903;BME280;30288;50.514;9.678;2023-11-19T06:35:32;98180.16;;;9.52;100.00
29903;BME280;30288;50.514;9.678;2023-11-19T06:37:39;98174.81;;;9.61;100.00
29903;BME280;30288;50.514;9.678;2023-11-19T06:39:45;98175.00;;;9.55;100.00
29903;BME280;30288;50.514;9.678;2023-11-19T06:41:51;98158.19;;;9.57;100.00
29903;BME280;30288;50.514;9.678;2023-11-19T06:43:56;98168.25;;;9.57;100.00
29903;BME280;30288;50.514;9.678;2023-11-19T06:45:59;98160.56;;;9.62;100.00
29903;BME280;30288;50.514;9.678;2023-11-19T06:48:05;98165.69;;;9.59;100.00
29903;BME280;30288;50.514;9.678;2023-11-19T06:50:11;98179.84;;;9.61;100.00
29903;BME280;30288;50.514;9.678;2023-11-19T06:52:17;98170.59;;;9.62;100.00
29903;BME280;30288;50.514;9.678;2023-11-19T06:54:23;98176.47;;;9.62;100.00
29903;BME280;30288;50.514;9.678;2023-11-19T06:56:29;98183.22;;;9.60;100.00
29903;BME280;30288;50.514;9.678;2023-11-19T06:58:38;98176.66;;;9.56;100.00
29903;BME280;30288;50.514;9.678;2023-11-19T07:00:41;98169.59;;;9.68;100.00
29903;BME280;30288;50.514;9.678;2023-11-19T07:02:48;98170.94;;;9.78;100.00
29903;BME280;30288;50.514;9.678;2023-11-19T07:04:54;98175.28;;;9.73;100.00
29903;BME280;30288;50.514;9.678;2023-11-19T07:06:59;98171.47;;;9.61;100.00
29903;BME280;30288;50.514;9.678;2023-11-19T07:09:05;98183.34;;;9.57;100.00
29903;BME280;30288;50.514;9.678;2023-11-19T07:11:12;98187.50;;;9.58;100.00
29903;BME280;30288;50.514;9.678;2023-11-19T07:13:19;98189.69;;;9.68;100.00
29903;BME280;30288;50.514;9.678;2023-11-19T07:15:27;98199.75;;;9.68;100.00
29903;BME280;30288;50.514;9.678;2023-11-19T07:17:33;98192.88;;;9.73;100.00
29903;BME280;30288;50.514;9.678;2023-11-19T07:19:38;98203.47;;;9.82;100.00
29903;BME280;30288;50.514;9.678;2023-11-19T07:21:44;98199.03;;;9.89;100.00
29903;BME280;30288;50.514;9.678;2023-11-19T07:23:49;98198.09;;;9.93;100.00
29903;BME280;30288;50.514;9.678;2023-11-19T07:25:55;98211.16;;;10.02;100.00
29903;BME280;30288;50.514;9.678;2023-11-19T07:28:00;98223.06;;;10.22;100.00
29903;BME280;30288;50.514;9.678;2023-11-19T07:30:07;98217.94;;;10.25;100.00
29903;BME280;30288;50.514;9.678;2023-11-19T07:32:15;98217.94;;;10.25;100.00
29903;BME280;30288;50.514;9.678;2023-11-19T07:34:20;98209.22;;;10.35;100.00
29903;BME280;30288;50.514;9.678;2023-11-19T07:36:26;98201.25;;;10.23;100.00
29903;BME280;30288;50.514;9.678;2023-11-19T07:38:31;98211.38;;;10.21;100.00
29903;BME280;30288;50.514;9.678;2023-11-19T07:40:36;98217.47;;;10.14;100.00
29903;BME280;30288;50.514;9.678;2023-11-19T07:42:42;98209.91;;;10.14;100.00
29903;BME280;30288;50.514;9.678;2023-11-19T07:44:47;98208.38;;;10.10;100.00
29903;BME280;30288;50.514;9.678;2023-11-19T07:46:52;98200.31;;;10.00;100.00
29903;BME280;30288;50.514;9.678;2023-11-19T07:48:58;98207.25;;;9.94;100.00
29903;BME280;30288;50.514;9.678;2023-11-19T07:51:05;98210.03;;;9.86;100.00
29903;BME280;30288;50.514;9.678;2023-11-19T07:53:10;98207.56;;;9.85;100.00
29903;BME280;30288;50.514;9.678;2023-11-19T07:55:16;98220.09;;;9.86;100.00
29903;BME280;30288;50.514;9.678;2023-11-19T07:57:22;98211.84;;;9.83;100.00
29903;BME280;30288;50.514;9.678;2023-11-19T07:59:29;98215.19;;;9.83;100.00
29903;BME280;30288;50.514;9.678;2023-11-19T08:01:34;98212.28;;;9.94;100.00
29903;BME280;30288;50.514;9.678;2023-11-19T08:03:40;98215.47;;;9.99;100.00
29903;BME280;30288;50.514;9.678;2023-11-19T08:06:04;98211.75;;;10.09;100.00
29903;BME280;30288;50.514;9.678;2023-11-19T08:08:09;98213.25;;;10.16;100.00
29903;BME280;30288;50.514;9.678;2023-11-19T08:10:14;98221.53;;;10.18;100.00
29903;BME280;30288;50.514;9.678;2023-11-19T08:12:19;98215.97;;;10.33;100.00
29903;BME280;30288;50.514;9.678;2023-11-19T08:14:25;98219.03;;;10.41;100.00
29903;BME280;30288;50.514;9.678;2023-11-19T08:16:30;98207.88;;;10.48;100.00
29903;BME280;30288;50.514;9.678;2023-11-19T08:18:35;98197.53;;;10.56;100.00
29903;BME280;30288;50.514;9.678;2023-11-19T08:20:40;98211.59;;;10.62;100.00
29903;BME280;30288;50.514;9.678;2023-11-19T08:22:50;98219.94;;;10.64;100.00
29903;BME280;30288;50.514;9.678;2023-11-19T08:24:55;98213.25;;;10.63;100.00
29903;BME280;30288;50.514;9.678;2023-11-19T08:27:00;98209.84;;;10.64;100.00
29903;BME280;30288;50.514;9.678;2023-11-19T08:29:05;98221.66;;;10.62;100.00
29903;BME280;30288;50.514;9.678;2023-11-19T08:31:11;98209.41;;;10.52;100.00
29903;BME280;30288;50.514;9.678;2023-11-19T08:33:16;98205.47;;;10.45;100.00
29903;BME280;30288;50.514;9.678;2023-11-19T08:35:24;98208.88;;;10.44;100.00
29903;BME280;30288;50.514;9.678;2023-11-19T08:37:30;98208.97;;;10.41;100.00
29903;BME280;30288;50.514;9.678;2023-11-19T08:39:38;98207.09;;;10.46;100.00
29903;BME280;30288;50.514;9.678;2023-11-19T08:41:44;98202.06;;;10.46;100.00
29903;BME280;30288;50.514;9.678;2023-11-19T08:43:50;98198.69;;;10.47;100.00
29903;BME280;30288;50.514;9.678;2023-11-19T08:45:55;98191.78;;;10.52;100.00
29903;BME280;30288;50.514;9.678;2023-11-19T08:48:00;98198.13;;;10.63;100.00
29903;BME280;30288;50.514;9.678;2023-11-19T08:50:07;98198.72;;;10.69;100.00
29903;BME280;30288;50.514;9.678;2023-11-19T08:52:11;98211.91;;;10.76;100.00
29903;BME280;30288;50.514;9.678;2023-11-19T08:54:16;98209.41;;;10.76;100.00
29903;BME280;30288;50.514;9.678;2023-11-19T08:56:25;98220.28;;;10.76;100.00
29903;BME280;30288;50.514;9.678;2023-11-19T08:58:35;98229.41;;;10.79;100.00
29903;BME280;30288;50.514;9.678;2023-11-19T09:00:40;98231.06;;;10.80;100.00
29903;BME280;30288;50.514;9.678;2023-11-19T09:02:46;98227.47;;;10.87;100.00
29903;BME280;30288;50.514;9.678;2023-11-19T09:04:52;98232.03;;;10.99;100.00
29903;BME280;30288;50.514;9.678;2023-11-19T09:06:58;98224.28;;;11.04;100.00
29903;BME280;30288;50.514;9.678;2023-11-19T09:09:03;98215.88;;;11.05;100.00
29903;BME280;30288;50.514;9.678;2023-11-19T09:11:09;98217.91;;;11.17;100.00
29903;BME280;30288;50.514;9.678;2023-11-19T09:13:17;98224.31;;;11.25;100.00
29903;BME280;30288;50.514;9.678;2023-11-19T09:15:20;98221.16;;;11.40;100.00
29903;BME280;30288;50.514;9.678;2023-11-19T09:17:25;98229.91;;;11.54;100.00
29903;BME280;30288;50.514;9.678;2023-11-19T09:19:32;98226.00;;;11.67;100.00
29903;BME280;30288;50.514;9.678;2023-11-19T09:21:38;98232.94;;;11.62;100.00
29903;BME280;30288;50.514;9.678;2023-11-19T09:23:44;98231.69;;;11.72;100.00
29903;BME280;30288;50.514;9.678;2023-11-19T09:25:49;98233.88;;;11.81;100.00
29903;BME280;30288;50.514;9.678;2023-11-19T09:27:52;98245.34;;;11.88;100.00
29903;BME280;30288;50.514;9.678;2023-11-19T09:30:00;98241.69;;;11.95;100.00
29903;BME280;30288;50.514;9.678;2023-11-19T09:32:07;98231.47;;;11.98;100.00
29903;BME280;30288;50.514;9.678;2023-11-19T09:34:12;98229.56;;;12.03;100.00
29903;BME280;30288;50.514;9.678;2023-11-19T09:36:17;98233.28;;;12.15;100.00
29903;BME280;30288;50.514;9.678;2023-11-19T09:38:22;98240.44;;;12.25;100.00
29903;BME280;30288;50.514;9.678;2023-11-19T09:40:27;98239.00;;;12.39;100.00
29903;BME280;30288;50.514;9.678;2023-11-19T09:42:42;98248.38;;;12.74;100.00
29903;BME280;30288;50.514;9.678;2023-11-19T09:44:48;98236.03;;;12.87;100.00
29903;BME280;30288;50.514;9.678;2023-11-19T09:46:57;98242.09;;;13.01;100.00
29903;BME280;30288;50.514;9.678;2023-11-19T09:49:04;98246.84;;;13.07;100.00
29903;BME280;30288;50.514;9.678;2023-11-19T09:51:11;98241.56;;;13.13;100.00
29903;BME280;30288;50.514;9.678;2023-11-19T09:53:17;98244.22;;;13.10;100.00
29903;BME280;30288;50.514;9.678;2023-11-19T09:55:23;98246.84;;;13.07;100.00
29903;BME280;30288;50.514;9.678;2023-11-19T09:57:31;98246.94;;;13.06;100.00
29903;BME280;30288;50.514;9.678;2023-11-19T09:59:39;98228.97;;;12.93;100.00
29903;BME280;30288;50.514;9.678;2023-11-19T10:01:45;98223.78;;;12.96;100.00
29903;BME280;30288;50.514;9.678;2023-11-19T10:03:55;98216.00;;;13.01;100.00
29903;BME280;30288;50.514;9.678;2023-11-19T10:06:01;98217.09;;;12.95;100.00
29903;BME280;30288;50.514;9.678;2023-11-19T10:08:07;98221.59;;;12.89;100.00
29903;BME280;30288;50.514;9.678;2023-11-19T10:10:13;98220.25;;;13.00;100.00
29903;BME280;30288;50.514;9.678;2023-11-19T10:12:21;98223.38;;;13.05;100.00
29903;BME280;30288;50.514;9.678;2023-11-19T10:14:26;98226.13;;;13.01;100.00
29903;BME280;30288;50.514;9.678;2023-11-19T10:16:35;98233.47;;;13.05;100.00
29903;BME280;30288;50.514;9.678;2023-11-19T10:18:45;98241.41;;;13.17;100.00
29903;BME280;30288;50.514;9.678;2023-11-19T10:20:50;98237.06;;;13.01;100.00
29903;BME280;30288;50.514;9.678;2023-11-19T10:22:55;98240.03;;;13.09;100.00
29903;BME280;30288;50.514;9.678;2023-11-19T10:25:01;98238.28;;;13.11;100.00
29903;BME280;30288;50.514;9.678;2023-11-19T10:27:07;98234.38;;;13.23;100.00
29903;BME280;30288;50.514;9.678;2023-11-19T10:29:13;98217.06;;;13.33;100.00
29903;BME280;30288;50.514;9.678;2023-11-19T10:31:20;98227.72;;;13.39;100.00
29903;BME280;30288;50.514;9.678;2023-11-19T10:33:30;98224.38;;;13.56;100.00
29903;BME280;30288;50.514;9.678;2023-11-19T10:35:51;98223.34;;;13.77;100.00
29903;BME280;30288;50.514;9.678;2023-11-19T10:38:12;98217.53;;;13.75;100.00
29903;BME280;30288;50.514;9.678;2023-11-19T10:40:18;98229.53;;;13.72;100.00
29903;BME280;30288;50.514;9.678;2023-11-19T10:42:21;98227.78;;;13.55;100.00
29903;BME280;30288;50.514;9.678;2023-11-19T10:44:33;98212.88;;;13.32;100.00
29903;BME280;30288;50.514;9.678;2023-11-19T10:46:40;98221.88;;;13.01;100.00
29903;BME280;30288;50.514;9.678;2023-11-19T10:48:46;98222.53;;;13.24;100.00
29903;BME280;30288;50.514;9.678;2023-11-19T10:50:54;98221.97;;;13.36;100.00
29903;BME280;30288;50.514;9.678;2023-11-19T10:53:03;98218.47;;;13.38;100.00
29903;BME280;30288;50.514;9.678;2023-11-19T10:55:11;98226.56;;;13.45;100.00
29903;BME280;30288;50.514;9.678;2023-11-19T10:57:21;98228.81;;;13.34;100.00
29903;BME280;30288;50.514;9.678;2023-11-19T10:59:30;98221.78;;;13.22;100.00
29903;BME280;30288;50.514;9.678;2023-11-19T11:01:43;98198.59;;;13.31;100.00
29903;BME280;30288;50.514;9.678;2023-11-19T11:03:49;98203.25;;;13.40;100.00
29903;BME280;30288;50.514;9.678;2023-11-19T11:05:56;98188.72;;;13.43;100.00
29903;BME280;30288;50.514;9.678;2023-11-19T11:08:05;98208.31;;;13.40;100.00